Time;durP1;ratioP1;P1;durP2;ratioP2;P2;SDS_P1;SDS_P2;PMS_P1;PMS_P2;Temp;Humidity;BMP_temperature;BMP_pressure;BME280_temperature;BME280_humidity;BME280_pressure;Samples;Min_cycle;Max_cycle;Signal;HPM_P1;HPM_P2
2022/05/31 00:00:43;;;;;;;1.50;0.98;;;14.20;99.50;;;;;;4124864;28;20039;-70
2022/05/31 00:02:45;;;;;;;1.25;0.85;;;14.10;99.60;;;;;;4125408;28;20038;-70
2022/05/31 00:04:46;;;;;;;2.03;1.13;;;14.10;99.60;;;;;;4127747;28;20041;-71
2022/05/31 00:06:47;;;;;;;3.55;1.25;;;14.10;99.50;;;;;;4126433;28;20030;-70
2022/05/31 00:08:48;;;;;;;2.03;1.10;;;14.10;99.60;;;;;;4125395;28;20109;-70
2022/05/31 00:10:48;;;;;;;2.08;1.17;;;14.00;99.90;;;;;;4124597;28;20058;-70
2022/05/31 00:12:50;;;;;;;1.92;1.20;;;14.00;99.90;;;;;;4125137;28;20605;-70
2022/05/31 00:14:50;;;;;;;2.35;1.10;;;14.00;99.90;;;;;;4127623;28;20054;-70
2022/05/31 00:16:51;;;;;;;2.28;1.17;;;14.00;99.90;;;;;;4127428;28;20022;-70
2022/05/31 00:18:52;;;;;;;1.63;0.80;;;14.00;99.70;;;;;;4127688;28;20459;-70
2022/05/31 00:20:52;;;;;;;2.80;1.20;;;13.90;98.80;;;;;;4123194;28;20514;-69
2022/05/31 00:22:53;;;;;;;1.50;1.10;;;13.90;99.80;;;;;;4125823;28;20447;-69
2022/05/31 00:24:54;;;;;;;2.40;1.25;;;13.80;99.90;;;;;;4126124;28;20121;-69
2022/05/31 00:26:55;;;;;;;1.38;1.10;;;13.80;99.90;;;;;;4125799;28;20082;-69
2022/05/31 00:28:55;;;;;;;1.65;1.20;;;13.80;99.90;;;;;;4123266;28;20041;-70
2022/05/31 00:30:56;;;;;;;1.08;0.73;;;13.80;99.80;;;;;;4125600;28;20034;-70
2022/05/31 00:32:57;;;;;;;2.25;1.20;;;13.80;99.90;;;;;;4126003;28;20558;-69
2022/05/31 00:35:07;;;;;;;2.20;1.20;;;13.80;99.90;;;;;;4124702;28;20117;-69
2022/05/31 00:37:08;;;;;;;2.67;1.45;;;13.70;99.90;;;;;;4122879;28;20085;-69
2022/05/31 00:39:10;;;;;;;2.05;0.98;;;13.70;99.90;;;;;;4126951;28;20034;-69
2022/05/31 00:41:25;;;;;;;3.00;1.13;;;13.70;99.90;;;;;;4126721;28;20050;-69
2022/05/31 00:43:25;;;;;;;1.88;1.23;;;13.70;99.90;;;;;;4127183;28;20038;-69
2022/05/31 00:45:44;;;;;;;1.60;0.95;;;13.60;99.90;;;;;;4126420;28;20046;-69
2022/05/31 00:47:46;;;;;;;1.90;1.20;;;13.60;99.90;;;;;;4125915;28;20419;-69
2022/05/31 00:49:51;;;;;;;3.15;1.58;;;13.60;99.90;;;;;;4123245;28;20022;-69
2022/05/31 00:51:54;;;;;;;1.60;1.27;;;13.60;99.90;;;;;;4127387;28;20031;-69
2022/05/31 00:54:00;;;;;;;1.48;1.30;;;13.60;99.90;;;;;;4122445;28;20113;-69
2022/05/31 00:56:05;;;;;;;1.42;1.08;;;13.60;99.90;;;;;;4124543;28;20662;-69
2022/05/31 00:58:12;;;;;;;1.40;0.90;;;13.60;99.90;;;;;;4123238;28;20399;-69
2022/05/31 01:00:15;;;;;;;3.88;1.50;;;13.60;99.90;;;;;;4125512;28;20101;-69
2022/05/31 01:02:18;;;;;;;2.92;1.48;;;13.60;99.90;;;;;;4141100;28;20125;-69
2022/05/31 01:04:30;;;;;;;1.58;1.20;;;13.60;99.90;;;;;;4126371;28;20392;-69
2022/05/31 01:06:32;;;;;;;2.42;1.38;;;13.60;99.90;;;;;;4121638;28;20495;-70
2022/05/31 01:08:36;;;;;;;1.70;1.20;;;13.70;99.90;;;;;;4121168;28;20496;-69
2022/05/31 01:10:39;;;;;;;1.70;1.27;;;13.70;99.90;;;;;;4127098;28;20035;-69
2022/05/31 01:12:42;;;;;;;2.60;1.42;;;13.60;99.90;;;;;;4141892;28;20049;-69
2022/05/31 01:14:42;;;;;;;2.33;1.10;;;13.60;99.90;;;;;;4127532;28;20050;-69
2022/05/31 01:17:05;;;;;;;1.25;1.15;;;13.70;99.90;;;;;;4128302;28;20030;-69
2022/05/31 01:19:55;;;;;;;4.28;1.30;;;13.60;99.90;;;;;;4144064;28;20410;-70
2022/05/31 01:21:26;;;;;;;1.73;1.30;;;13.60;99.90;;;;;;4127524;28;20034;-69
2022/05/31 01:23:33;;;;;;;2.20;1.02;;;13.60;99.90;;;;;;4129135;28;20541;-69
2022/05/31 01:25:46;;;;;;;1.98;1.25;;;13.60;99.90;;;;;;4120663;28;20027;-69
2022/05/31 01:27:53;;;;;;;2.65;1.48;;;13.60;99.90;;;;;;4128867;28;20451;-70
2022/05/31 01:29:54;;;;;;;2.03;1.23;;;13.60;99.90;;;;;;4126742;28;20029;-69
2022/05/31 01:31:59;;;;;;;2.95;1.80;;;13.60;99.90;;;;;;4124179;28;20054;-69
2022/05/31 01:34:14;;;;;;;2.47;1.52;;;13.50;99.90;;;;;;4146855;28;20048;-69
2022/05/31 01:36:20;;;;;;;2.38;1.67;;;13.50;99.90;;;;;;4124557;28;20054;-69
2022/05/31 01:38:27;;;;;;;2.72;1.35;;;13.50;99.90;;;;;;4124083;28;20042;-69
2022/05/31 01:40:42;;;;;;;2.15;1.20;;;13.50;99.90;;;;;;4136885;28;20515;-70
2022/05/31 01:42:46;;;;;;;3.92;1.58;;;13.50;99.90;;;;;;4124088;28;20088;-69
2022/05/31 01:44:52;;;;;;;3.17;1.67;;;13.50;99.90;;;;;;4123558;28;20038;-70
2022/05/31 01:46:55;;;;;;;2.30;1.58;;;13.50;99.90;;;;;;4121715;28;20031;-69
2022/05/31 01:48:57;;;;;;;2.75;1.58;;;13.50;99.90;;;;;;4124178;28;20034;-69
2022/05/31 01:50:58;;;;;;;3.28;1.30;;;13.50;99.90;;;;;;4124786;28;20360;-69
2022/05/31 01:53:00;;;;;;;2.22;1.40;;;13.50;99.90;;;;;;4125055;28;20122;-69
2022/05/31 01:55:02;;;;;;;3.17;1.75;;;13.50;99.90;;;;;;4124042;28;20050;-69
2022/05/31 01:57:05;;;;;;;2.15;1.50;;;13.50;99.90;;;;;;4123821;28;20030;-69
2022/05/31 01:59:06;;;;;;;3.00;1.38;;;13.50;99.90;;;;;;4124330;28;20395;-69
2022/05/31 02:01:08;;;;;;;2.25;1.50;;;13.50;99.90;;;;;;4123864;28;20054;-69
2022/05/31 02:03:10;;;;;;;3.28;1.58;;;13.50;99.90;;;;;;4125873;28;20483;-69
2022/05/31 02:05:10;;;;;;;2.70;1.50;;;13.40;99.90;;;;;;4115422;28;20038;-69
2022/05/31 02:07:16;;;;;;;4.15;1.50;;;13.50;99.90;;;;;;4123513;28;20030;-69
2022/05/31 02:09:17;;;;;;;2.95;1.63;;;13.50;99.90;;;;;;4118975;28;20031;-69
2022/05/31 02:11:17;;;;;;;1.75;1.40;;;13.50;99.90;;;;;;4123182;28;20065;-69
2022/05/31 02:13:18;;;;;;;3.25;1.85;;;13.40;99.90;;;;;;4124006;28;20052;-69
2022/05/31 02:15:20;;;;;;;1.88;1.33;;;13.40;99.90;;;;;;4122675;28;20057;-69
2022/05/31 02:17:21;;;;;;;1.45;1.23;;;13.40;99.90;;;;;;4125140;28;20054;-69
2022/05/31 02:19:28;;;;;;;2.78;1.98;;;13.50;99.90;;;;;;4125403;28;20492;-69
2022/05/31 02:21:35;;;;;;;2.80;1.70;;;13.40;99.90;;;;;;4125360;28;20046;-69
2022/05/31 02:23:35;;;;;;;3.10;1.88;;;13.40;99.90;;;;;;4123202;28;20030;-69
2022/05/31 02:25:36;;;;;;;3.00;1.88;;;13.40;99.90;;;;;;4122832;28;20045;-69
2022/05/31 02:27:37;;;;;;;3.58;1.88;;;13.40;99.90;;;;;;4123207;28;20066;-69
2022/05/31 02:29:39;;;;;;;2.63;1.58;;;13.30;99.90;;;;;;4125384;28;20038;-69
2022/05/31 02:31:40;;;;;;;3.95;1.80;;;13.30;99.90;;;;;;4124032;28;20045;-69
2022/05/31 02:33:41;;;;;;;1.83;1.30;;;13.30;99.90;;;;;;4123396;28;20045;-69
2022/05/31 02:35:42;;;;;;;3.78;1.52;;;13.30;99.90;;;;;;4189399;22;20499;-66
2022/05/31 02:37:42;;;;;;;2.75;1.55;;;13.40;99.90;;;;;;4156744;28;20034;-66
2022/05/31 02:39:43;;;;;;;2.85;1.73;;;13.40;99.90;;;;;;4153045;28;20033;-66
2022/05/31 02:41:45;;;;;;;2.60;1.70;;;13.40;99.90;;;;;;4155201;28;20048;-66
2022/05/31 02:43:46;;;;;;;3.35;1.88;;;13.40;99.90;;;;;;4152405;28;20053;-65
2022/05/31 02:45:46;;;;;;;2.95;1.70;;;13.40;99.90;;;;;;4154758;28;20096;-66
2022/05/31 02:47:47;;;;;;;1.90;1.67;;;13.40;99.90;;;;;;4156191;28;20042;-65
2022/05/31 02:49:48;;;;;;;4.50;1.63;;;13.40;99.90;;;;;;4153315;28;20077;-66
2022/05/31 02:51:48;;;;;;;3.47;1.88;;;13.40;99.90;;;;;;4158756;28;20096;-66
2022/05/31 02:53:49;;;;;;;3.35;1.90;;;13.40;99.90;;;;;;4156836;28;20195;-65
2022/05/31 02:55:50;;;;;;;5.30;2.28;;;13.40;99.90;;;;;;4149918;28;20044;-66
2022/05/31 02:57:50;;;;;;;3.35;2.28;;;13.40;99.90;;;;;;4157686;28;20038;-66
2022/05/31 02:59:51;;;;;;;3.53;1.92;;;13.50;99.90;;;;;;4153770;28;20037;-66
2022/05/31 03:01:52;;;;;;;3.13;2.00;;;13.40;99.90;;;;;;4152810;28;20087;-65
2022/05/31 03:03:53;;;;;;;2.70;2.00;;;13.40;99.90;;;;;;4156355;28;20041;-65
2022/05/31 03:05:54;;;;;;;2.38;1.80;;;13.40;99.90;;;;;;4147894;28;20468;-66
2022/05/31 03:07:54;;;;;;;3.47;2.00;;;13.40;99.90;;;;;;4152531;28;22843;-66
2022/05/31 03:09:55;;;;;;;3.90;2.08;;;13.50;99.90;;;;;;4156857;28;20117;-65
2022/05/31 03:12:08;;;;;;;2.60;1.80;;;13.40;99.90;;;;;;4151807;28;20038;-65
2022/05/31 03:14:18;;;;;;;4.53;2.17;;;13.40;99.90;;;;;;4158397;28;20492;-66
2022/05/31 03:16:19;;;;;;;3.22;2.10;;;13.50;99.90;;;;;;4153640;28;20388;-65
2022/05/31 03:18:24;;;;;;;3.10;2.17;;;13.50;99.90;;;;;;4156229;28;20111;-65
2022/05/31 03:20:47;;;;;;;3.80;2.10;;;13.40;99.90;;;;;;4153911;28;20068;-65
2022/05/31 03:22:58;;;;;;;7.20;2.35;;;13.50;99.90;;;;;;4154087;28;20049;-66
2022/05/31 03:25:07;;;;;;;3.78;2.08;;;13.50;99.90;;;;;;4154453;28;20033;-66
2022/05/31 03:27:11;;;;;;;3.60;2.35;;;13.40;99.90;;;;;;4156695;28;20476;-66
2022/05/31 03:29:11;;;;;;;3.30;2.10;;;13.40;99.90;;;;;;4154381;28;20030;-66
2022/05/31 03:31:12;;;;;;;6.28;1.98;;;13.40;99.90;;;;;;4154588;28;20049;-66
2022/05/31 03:33:14;;;;;;;3.55;2.30;;;13.40;99.90;;;;;;4157991;28;20037;-66
2022/05/31 03:35:15;;;;;;;4.30;2.20;;;13.40;99.90;;;;;;4155916;28;20072;-66
2022/05/31 03:37:16;;;;;;;2.88;2.03;;;13.40;99.90;;;;;;4152538;28;20034;-65
2022/05/31 03:39:16;;;;;;;6.25;2.30;;;13.40;99.90;;;;;;4151115;28;20041;-65
2022/05/31 03:41:17;;;;;;;3.88;2.28;;;13.40;99.90;;;;;;4153111;28;20124;-66
2022/05/31 03:43:17;;;;;;;3.97;2.42;;;13.40;99.90;;;;;;4156642;28;20034;-65
2022/05/31 03:45:18;;;;;;;5.53;2.63;;;13.40;99.90;;;;;;4155718;28;20034;-66
2022/05/31 03:47:18;;;;;;;5.18;2.35;;;13.40;99.90;;;;;;4158575;28;20041;-66
2022/05/31 03:49:20;;;;;;;4.32;2.53;;;13.40;99.90;;;;;;4158388;28;20041;-66
2022/05/31 03:51:20;;;;;;;5.10;2.20;;;13.40;99.90;;;;;;4156137;28;20065;-66
2022/05/31 03:53:21;;;;;;;2.42;2.10;;;13.50;99.90;;;;;;4158303;28;20046;-65
2022/05/31 03:55:22;;;;;;;3.08;2.20;;;13.50;99.90;;;;;;4158409;28;20042;-65
2022/05/31 03:57:22;;;;;;;5.32;2.80;;;13.50;99.90;;;;;;4158810;28;20041;-65
2022/05/31 03:59:23;;;;;;;3.25;2.15;;;13.50;99.90;;;;;;4158216;28;20117;-65
2022/05/31 04:01:23;;;;;;;3.92;2.53;;;13.50;99.90;;;;;;4156561;28;20070;-66
2022/05/31 04:03:25;;;;;;;4.00;2.20;;;13.50;99.90;;;;;;4158154;28;20033;-65
2022/05/31 04:05:25;;;;;;;3.47;2.25;;;13.50;99.90;;;;;;4156743;28;20041;-66
2022/05/31 04:07:26;;;;;;;4.43;2.72;;;13.50;99.90;;;;;;4158236;28;20115;-66
2022/05/31 04:09:26;;;;;;;4.22;2.88;;;13.50;99.90;;;;;;4157534;28;20044;-65
2022/05/31 04:11:27;;;;;;;3.13;2.30;;;13.50;99.90;;;;;;4156151;28;20437;-67
2022/05/31 04:13:28;;;;;;;5.25;2.60;;;13.50;99.90;;;;;;4156231;28;20042;-66
2022/05/31 04:15:29;;;;;;;4.72;2.38;;;13.50;99.90;;;;;;4157207;28;20549;-66
2022/05/31 04:17:30;;;;;;;6.03;2.67;;;13.60;99.90;;;;;;4156241;28;20034;-65
2022/05/31 04:19:31;;;;;;;6.60;2.40;;;13.60;99.90;;;;;;4156190;28;20452;-66
2022/05/31 04:21:31;;;;;;;3.83;2.67;;;13.60;99.90;;;;;;4144670;28;20137;-66
2022/05/31 04:26:02;;;;;;;4.03;2.45;;;13.60;99.90;;;;;;4157774;28;20045;-66
2022/05/31 04:28:03;;;;;;;4.25;2.25;;;13.60;99.90;;;;;;4154960;28;20461;-66
2022/05/31 04:30:04;;;;;;;4.35;2.60;;;13.60;99.90;;;;;;4157929;28;20034;-66
2022/05/31 04:32:05;;;;;;;4.82;2.92;;;13.60;99.90;;;;;;4157420;28;20382;-66
2022/05/31 04:34:06;;;;;;;4.72;2.30;;;13.60;99.90;;;;;;4157301;28;20049;-66
2022/05/31 04:36:10;;;;;;;11.38;3.25;;;13.60;99.90;;;;;;4153757;28;20042;-66
2022/05/31 04:38:11;;;;;;;4.57;2.58;;;13.70;99.90;;;;;;4156761;28;20549;-66
2022/05/31 04:40:11;;;;;;;4.63;2.70;;;13.70;99.90;;;;;;4151886;28;20037;-66
2022/05/31 04:42:12;;;;;;;4.85;3.10;;;13.70;99.90;;;;;;4157546;28;20040;-66
2022/05/31 04:44:15;;;;;;;5.10;2.95;;;13.70;99.90;;;;;;4159613;28;20044;-66
2022/05/31 04:46:18;;;;;;;4.35;2.50;;;13.70;99.90;;;;;;4157047;28;20109;-65
2022/05/31 04:48:19;;;;;;;4.43;2.90;;;13.70;99.90;;;;;;4154250;28;20084;-66
2022/05/31 04:50:20;;;;;;;4.25;2.70;;;13.70;99.90;;;;;;4153250;28;20465;-65
2022/05/31 04:52:20;;;;;;;5.03;3.10;;;13.70;99.90;;;;;;4161467;28;20480;-66
2022/05/31 04:54:23;;;;;;;4.78;2.78;;;13.70;99.90;;;;;;4153238;28;20124;-66
2022/05/31 04:56:24;;;;;;;5.47;2.88;;;13.70;99.90;;;;;;4156557;28;20037;-66
2022/05/31 04:58:25;;;;;;;5.30;3.03;;;13.70;99.90;;;;;;4154653;28;20045;-65
2022/05/31 05:00:25;;;;;;;7.75;3.75;;;13.60;99.90;;;;;;4158810;28;20042;-65
2022/05/31 05:02:26;;;;;;;4.20;2.83;;;13.50;99.90;;;;;;4152251;28;20429;-66
2022/05/31 05:04:26;;;;;;;5.78;3.28;;;13.40;99.90;;;;;;4150293;28;20069;-66
2022/05/31 05:06:27;;;;;;;6.80;3.42;;;13.30;99.90;;;;;;4153618;28;20052;-66
2022/05/31 05:08:28;;;;;;;5.88;3.45;;;13.10;99.90;;;;;;4152496;28;20100;-66
2022/05/31 05:10:29;;;;;;;6.68;3.67;;;12.90;99.90;;;;;;4158689;28;20084;-66
2022/05/31 05:12:30;;;;;;;6.45;3.50;;;12.90;99.90;;;;;;4154016;28;20053;-66
2022/05/31 05:14:30;;;;;;;6.40;3.70;;;12.80;99.90;;;;;;4154698;28;20041;-69
2022/05/31 05:16:31;;;;;;;6.10;3.60;;;12.80;99.90;;;;;;4156314;28;20034;-69
2022/05/31 05:18:32;;;;;;;7.40;4.38;;;12.80;99.90;;;;;;4156333;28;20046;-69
2022/05/31 05:20:40;;;;;;;8.38;4.15;;;12.90;99.90;;;;;;4151659;28;20120;-69
2022/05/31 05:22:40;;;;;;;5.60;3.78;;;12.90;99.90;;;;;;4148723;28;20034;-69
2022/05/31 05:24:41;;;;;;;7.95;4.10;;;13.00;99.90;;;;;;4151333;28;20045;-69
2022/05/31 05:26:42;;;;;;;6.55;3.88;;;13.10;99.90;;;;;;4146953;28;20042;-69
2022/05/31 05:31:02;;;;;;;7.35;3.70;;;13.20;99.90;;;;;;4152017;28;20037;-69
2022/05/31 05:33:03;;;;;;;8.13;4.32;;;13.20;99.90;;;;;;4151050;28;20038;-68
2022/05/31 05:35:04;;;;;;;10.05;4.03;;;13.30;99.90;;;;;;4149953;28;20042;-68
2022/05/31 05:37:04;;;;;;;9.02;4.30;;;13.20;99.90;;;;;;4147488;28;20052;-68
2022/05/31 05:39:10;;;;;;;9.10;4.32;;;13.30;99.90;;;;;;4148214;28;20511;-69
2022/05/31 05:41:11;;;;;;;10.23;4.22;;;13.30;99.90;;;;;;4146640;28;20122;-68
2022/05/31 05:43:12;;;;;;;7.53;4.47;;;13.30;99.90;;;;;;4148958;28;20103;-69
2022/05/31 05:45:13;;;;;;;9.00;4.07;;;13.30;99.90;;;;;;4148222;28;20034;-69
2022/05/31 05:47:14;;;;;;;7.47;3.95;;;13.30;99.90;;;;;;4147485;28;20041;-68
2022/05/31 05:49:15;;;;;;;6.63;4.40;;;13.40;99.90;;;;;;4149086;28;20126;-68
2022/05/31 05:51:19;;;;;;;8.23;3.85;;;13.40;99.90;;;;;;4151033;28;20125;-68
2022/05/31 05:53:20;;;;;;;5.32;3.80;;;13.40;99.90;;;;;;4151880;28;20053;-68
2022/05/31 05:55:21;;;;;;;5.75;3.65;;;13.40;99.90;;;;;;4151806;28;20041;-68
2022/05/31 05:57:21;;;;;;;7.30;3.85;;;13.40;99.90;;;;;;4151246;28;20067;-68
2022/05/31 05:59:23;;;;;;;6.30;3.97;;;13.40;99.90;;;;;;4150267;28;20049;-68
2022/05/31 06:01:40;;;;;;;10.32;4.20;;;13.40;99.90;;;;;;4150026;28;20666;-68
2022/05/31 06:03:45;;;;;;;9.45;4.40;;;13.40;99.90;;;;;;4147842;28;20049;-69
2022/05/31 06:05:47;;;;;;;8.18;4.38;;;13.20;99.90;;;;;;4150267;28;20041;-68
2022/05/31 06:08:09;;;;;;;8.88;4.55;;;13.10;99.90;;;;;;4149947;28;20438;-68
2022/05/31 06:10:18;;;;;;;8.70;4.18;;;13.10;99.90;;;;;;4148752;28;20079;-69
2022/05/31 06:12:25;;;;;;;7.80;4.68;;;13.00;99.90;;;;;;4148986;28;20132;-68
2022/05/31 06:14:30;;;;;;;7.50;4.40;;;13.00;99.90;;;;;;4152631;28;20038;-69
2022/05/31 06:16:37;;;;;;;5.93;4.43;;;13.00;99.90;;;;;;4149499;28;20065;-69
2022/05/31 06:18:51;;;;;;;7.97;4.35;;;12.90;99.90;;;;;;4149816;28;20044;-69
2022/05/31 06:20:56;;;;;;;7.22;4.53;;;12.90;99.90;;;;;;4148712;28;20189;-68
2022/05/31 06:22:57;;;;;;;6.55;4.15;;;13.00;99.90;;;;;;4149995;28;20034;-68
2022/05/31 06:24:58;;;;;;;4.82;3.90;;;13.00;99.90;;;;;;4149167;28;20029;-68
2022/05/31 06:26:59;;;;;;;5.90;4.10;;;13.10;99.90;;;;;;4149526;28;20053;-68
2022/05/31 06:29:00;;;;;;;6.07;4.20;;;13.10;99.90;;;;;;4146815;28;20042;-68
2022/05/31 06:31:00;;;;;;;8.60;4.53;;;13.20;99.90;;;;;;4146035;28;20044;-68
2022/05/31 06:33:01;;;;;;;5.25;3.53;;;13.30;99.90;;;;;;4149727;28;20038;-69
2022/05/31 06:35:01;;;;;;;7.72;4.80;;;13.40;99.90;;;;;;4150518;28;20045;-69
2022/05/31 06:37:08;;;;;;;8.88;4.68;;;13.40;99.90;;;;;;4148762;28;20034;-69
2022/05/31 06:39:09;;;;;;;5.95;4.57;;;13.40;99.90;;;;;;4149012;28;20062;-69
2022/05/31 06:41:09;;;;;;;7.40;4.60;;;13.50;99.90;;;;;;4149092;28;20400;-69
2022/05/31 06:43:10;;;;;;;6.82;4.20;;;13.50;99.90;;;;;;4145264;28;20037;-69
2022/05/31 06:45:11;;;;;;;11.77;4.55;;;13.50;99.90;;;;;;4147703;28;20038;-71
2022/05/31 06:47:12;;;;;;;8.23;4.50;;;13.60;99.90;;;;;;4148529;28;20069;-69
2022/05/31 06:49:12;;;;;;;6.78;4.22;;;13.60;99.90;;;;;;4150615;28;20112;-70
2022/05/31 06:56:48;;;;;;;6.85;4.38;;;13.60;99.90;;;;;;4144624;28;20528;-70
2022/05/31 06:58:17;;;;;;;;;;;13.60;99.90;;;;;;4150364;28;20088;-69
2022/05/31 07:00:20;;;;;;;7.07;4.47;;;13.70;99.90;;;;;;4148302;28;19918;-69
2022/05/31 07:02:20;;;;;;;6.72;4.85;;;13.70;99.90;;;;;;4150916;28;20053;-69
2022/05/31 07:04:21;;;;;;;8.00;4.80;;;13.70;99.90;;;;;;4148815;28;20054;-69
2022/05/31 07:06:21;;;;;;;6.82;3.97;;;13.70;99.90;;;;;;4147414;28;20046;-68
2022/05/31 07:08:22;;;;;;;6.25;4.22;;;13.70;99.90;;;;;;4145625;28;20084;-70
2022/05/31 07:10:23;;;;;;;7.78;5.00;;;13.80;99.90;;;;;;4146506;28;20666;-70
2022/05/31 07:12:23;;;;;;;8.88;5.00;;;13.80;99.90;;;;;;4148233;28;20045;-70
2022/05/31 07:14:25;;;;;;;12.00;6.03;;;13.70;99.90;;;;;;4149318;28;20072;-69
2022/05/31 07:16:25;;;;;;;12.02;5.88;;;13.20;99.90;;;;;;4147859;28;20041;-69
2022/05/31 07:18:27;;;;;;;10.45;5.45;;;12.70;99.90;;;;;;4148798;28;20484;-69
2022/05/31 07:20:28;;;;;;;9.57;5.32;;;12.40;99.90;;;;;;4147987;28;20164;-69
2022/05/31 07:22:29;;;;;;;10.48;6.00;;;12.20;99.90;;;;;;4152097;28;20477;-69
2022/05/31 07:24:30;;;;;;;8.07;5.55;;;11.90;99.90;;;;;;4152382;28;20045;-69
2022/05/31 07:26:31;;;;;;;9.73;5.55;;;11.70;99.90;;;;;;4152099;28;20034;-69
2022/05/31 07:28:31;;;;;;;11.95;5.57;;;11.60;99.90;;;;;;4152084;28;20076;-70
2022/05/31 07:30:34;;;;;;;10.15;5.75;;;11.50;99.90;;;;;;4146037;28;20045;-70
2022/05/31 07:32:34;;;;;;;11.88;5.85;;;11.50;99.90;;;;;;4147507;28;20053;-70
2022/05/31 07:34:35;;;;;;;11.80;6.65;;;11.50;99.90;;;;;;4152853;28;20053;-70
2022/05/31 07:36:40;;;;;;;8.98;5.47;;;11.50;99.90;;;;;;4147580;28;20037;-70
2022/05/31 07:38:41;;;;;;;10.80;5.60;;;11.60;99.90;;;;;;4150722;28;20121;-70
2022/05/31 07:40:44;;;;;;;7.28;5.07;;;11.70;99.90;;;;;;4146956;28;20421;-70
2022/05/31 07:42:44;;;;;;;8.55;5.47;;;11.80;99.90;;;;;;4152032;28;20122;-70
2022/05/31 07:44:45;;;;;;;8.18;5.03;;;11.90;99.90;;;;;;4151385;28;20065;-70
2022/05/31 07:46:46;;;;;;;8.73;4.68;;;12.00;99.90;;;;;;4150019;28;20042;-70
2022/05/31 07:48:46;;;;;;;7.57;4.22;;;12.10;99.90;;;;;;4141881;28;20538;-69
2022/05/31 07:50:50;;;;;;;7.55;5.03;;;12.20;99.90;;;;;;4149918;28;20061;-70
2022/05/31 07:52:50;;;;;;;7.85;5.03;;;12.30;99.90;;;;;;4153491;28;20408;-70
2022/05/31 07:54:51;;;;;;;11.13;5.90;;;12.40;99.90;;;;;;4153328;28;20046;-69
2022/05/31 07:56:51;;;;;;;9.50;5.35;;;12.50;99.90;;;;;;4150325;28;20061;-69
2022/05/31 07:58:52;;;;;;;9.38;5.32;;;12.60;99.90;;;;;;4150778;28;20711;-70
2022/05/31 08:00:52;;;;;;;7.32;4.75;;;12.70;99.90;;;;;;4151598;28;20037;-69
2022/05/31 08:02:53;;;;;;;12.85;5.28;;;12.80;99.90;;;;;;4153497;28;20096;-70
2022/05/31 08:04:54;;;;;;;8.82;5.38;;;13.00;99.90;;;;;;4153566;28;20045;-69
2022/05/31 08:06:59;;;;;;;7.88;4.68;;;13.10;99.90;;;;;;4153179;28;20041;-70
2022/05/31 08:09:00;;;;;;;8.95;5.20;;;13.20;99.90;;;;;;4151671;28;21031;-69
2022/05/31 08:11:06;;;;;;;8.52;5.13;;;13.40;99.90;;;;;;4154563;28;20030;-70
2022/05/31 08:13:07;;;;;;;7.30;4.78;;;13.60;99.90;;;;;;4153201;28;20061;-69
2022/05/31 08:15:08;;;;;;;8.98;5.18;;;13.70;99.90;;;;;;4154822;28;20087;-69
2022/05/31 08:17:10;;;;;;;7.55;5.32;;;13.90;99.90;;;;;;4156122;28;20042;-69
2022/05/31 08:19:10;;;;;;;10.48;5.45;;;14.10;99.90;;;;;;4153392;28;20053;-70
2022/05/31 08:21:17;;;;;;;10.40;5.57;;;14.20;99.90;;;;;;4153188;28;20060;-69
2022/05/31 08:23:18;;;;;;;9.57;5.00;;;14.40;99.90;;;;;;4153682;28;20514;-69
2022/05/31 08:25:19;;;;;;;9.20;4.88;;;14.50;99.90;;;;;;4153864;28;20136;-69
2022/05/31 08:27:20;;;;;;;8.02;4.65;;;14.60;99.90;;;;;;4151265;28;20045;-68
2022/05/31 08:29:21;;;;;;;8.02;4.03;;;14.70;99.90;;;;;;4152823;28;20049;-68
2022/05/31 08:31:26;;;;;;;10.02;4.97;;;15.00;99.90;;;;;;4151009;28;20053;-68
2022/05/31 08:33:27;;;;;;;12.75;6.55;;;15.10;99.90;;;;;;4147258;28;20037;-69
2022/05/31 08:35:28;;;;;;;11.35;5.43;;;15.10;99.90;;;;;;4149746;28;20053;-69
2022/05/31 08:37:30;;;;;;;12.13;6.60;;;15.10;99.90;;;;;;4149561;28;20481;-70
2022/05/31 08:39:31;;;;;;;12.30;6.70;;;15.10;99.90;;;;;;4155052;28;20033;-70
2022/05/31 08:41:44;;;;;;;14.40;5.82;;;15.20;99.90;;;;;;4150323;28;20118;-70
2022/05/31 08:43:44;;;;;;;;;;;15.20;99.90;;;;;;4149451;28;20064;-69
2022/05/31 08:45:54;;;;;;;10.68;5.28;;;15.30;99.90;;;;;;4148545;28;20658;-69
2022/05/31 08:48:25;;;;;;;14.07;6.13;;;15.50;99.90;;;;;;4149585;28;20515;-69
2022/05/31 08:53:14;;;;;;;11.00;5.55;;;15.90;99.90;;;;;;4168587;28;20477;-68
2022/05/31 08:57:48;;;;;;;13.05;5.97;;;16.30;99.90;;;;;;4166001;28;20045;-68
2022/05/31 09:00:05;;;;;;;11.40;5.07;;;16.40;99.90;;;;;;4168726;28;20037;-68
2022/05/31 09:02:30;;;;;;;11.25;5.55;;;16.60;99.90;;;;;;4167977;28;20037;-68
2022/05/31 09:05:13;;;;;;;11.20;4.90;;;16.70;99.90;;;;;;4159738;28;20041;-68
2022/05/31 09:07:22;;;;;;;12.32;5.68;;;16.80;99.90;;;;;;4169858;28;20053;-68
2022/05/31 09:09:26;;;;;;;10.65;5.45;;;16.80;99.90;;;;;;4171658;28;20055;-68
2022/05/31 09:11:38;;;;;;;12.75;5.28;;;16.90;99.90;;;;;;4147418;28;20631;-68
2022/05/31 09:14:00;;;;;;;7.53;4.72;;;17.10;99.90;;;;;;4154313;28;20053;-68
2022/05/31 09:16:23;;;;;;;8.82;4.95;;;17.10;99.90;;;;;;4169254;28;20399;-68
2022/05/31 09:18:42;;;;;;;9.95;5.03;;;17.30;99.90;;;;;;4171360;28;20048;-68
2022/05/31 09:20:53;;;;;;;10.82;5.10;;;17.30;99.90;;;;;;4169411;28;20101;-68
2022/05/31 09:22:54;;;;;;;6.90;3.60;;;17.30;99.90;;;;;;4171614;28;20128;-68
2022/05/31 09:24:56;;;;;;;6.28;3.10;;;17.40;99.90;;;;;;4170570;28;20104;-68
2022/05/31 09:27:22;;;;;;;6.90;3.53;;;17.50;99.90;;;;;;4170561;28;20037;-68
2022/05/31 09:29:54;;;;;;;6.88;3.30;;;17.60;99.90;;;;;;4166502;28;20107;-69
2022/05/31 09:32:17;;;;;;;5.50;3.20;;;17.70;99.90;;;;;;4144622;28;20045;-68
2022/05/31 09:35:02;;;;;;;3.80;2.38;;;17.80;99.90;;;;;;4167983;28;20092;-69
2022/05/31 09:37:21;;;;;;;4.35;2.65;;;17.90;99.90;;;;;;4125135;28;20029;-69
2022/05/31 09:39:29;;;;;;;4.95;2.90;;;17.90;99.90;;;;;;4167697;28;20048;-67
2022/05/31 09:41:37;;;;;;;4.80;2.92;;;17.80;99.90;;;;;;4165073;28;20048;-68
2022/05/31 09:43:49;;;;;;;5.47;3.47;;;18.00;99.90;;;;;;4169502;28;20063;-68
2022/05/31 09:46:11;;;;;;;5.07;3.60;;;18.00;99.90;;;;;;4167067;28;20041;-67
2022/05/31 09:48:11;;;;;;;5.20;3.17;;;18.10;99.90;;;;;;4167724;28;20044;-67
2022/05/31 09:50:24;;;;;;;6.72;3.33;;;18.10;99.90;;;;;;4168449;28;20029;-68
2022/05/31 09:52:43;;;;;;;5.43;3.10;;;18.20;99.90;;;;;;4166905;28;20469;-68
2022/05/31 09:57:29;;;;;;;7.57;3.00;;;18.30;99.30;;;;;;4165868;28;21351;-69
2022/05/31 09:59:32;;;;;;;4.10;2.72;;;18.30;99.00;;;;;;4168867;28;20033;-69
2022/05/31 10:01:43;;;;;;;4.68;2.28;;;18.40;99.90;;;;;;4167735;28;20064;-69
2022/05/31 10:03:44;;;;;;;4.43;2.65;;;18.50;98.00;;;;;;4166072;28;20119;-69
2022/05/31 10:05:46;;;;;;;3.60;2.63;;;18.40;98.70;;;;;;4168346;28;20025;-69
2022/05/31 10:07:48;;;;;;;3.63;2.50;;;18.50;97.30;;;;;;4152205;28;20431;-69
2022/05/31 10:10:01;;;;;;;5.20;3.15;;;18.60;99.50;;;;;;4169576;28;20044;-69
2022/05/31 10:12:11;;;;;;;5.50;3.63;;;18.70;99.50;;;;;;4168319;28;20083;-69
2022/05/31 10:14:33;;;;;;;9.82;3.50;;;18.70;99.30;;;;;;4169659;28;20574;-69
2022/05/31 10:16:37;;;;;;;5.97;3.20;;;18.80;98.90;;;;;;4166771;28;20492;-69
2022/05/31 10:18:56;;;;;;;6.15;3.58;;;18.90;98.10;;;;;;4150715;28;20038;-69
2022/05/31 10:21:06;;;;;;;11.52;4.72;;;18.90;97.10;;;;;;4151250;28;20420;-68
2022/05/31 10:23:13;;;;;;;6.22;3.40;;;18.80;97.10;;;;;;4166728;28;20484;-68
2022/05/31 10:25:23;;;;;;;6.60;3.63;;;18.90;99.40;;;;;;4168500;28;20044;-68
2022/05/31 10:27:28;;;;;;;5.30;2.83;;;18.90;98.70;;;;;;4168268;28;20124;-68
2022/05/31 10:29:33;;;;;;;3.88;2.58;;;18.80;95.10;;;;;;4169243;28;20160;-68
2022/05/31 10:31:36;;;;;;;2.90;2.40;;;18.90;99.40;;;;;;4170382;28;20480;-71
2022/05/31 10:33:37;;;;;;;3.45;2.05;;;19.00;97.80;;;;;;4168114;28;20090;-68
2022/05/31 10:35:43;;;;;;;5.35;2.35;;;19.10;98.70;;;;;;4169437;28;20106;-68
2022/05/31 10:37:57;;;;;;;3.55;2.03;;;19.20;97.20;;;;;;4167917;28;20063;-68
2022/05/31 10:40:08;;;;;;;2.70;1.90;;;19.20;96.80;;;;;;4169299;28;20080;-68
2022/05/31 10:42:12;;;;;;;3.70;2.55;;;19.30;95.70;;;;;;4167405;28;20045;-68
2022/05/31 10:44:23;;;;;;;4.47;2.90;;;19.30;94.90;;;;;;4164270;28;20034;-68
2022/05/31 10:46:29;;;;;;;6.68;3.17;;;19.20;96.00;;;;;;4168877;28;20156;-68
2022/05/31 10:48:30;;;;;;;4.50;2.65;;;19.30;94.10;;;;;;4166490;28;20518;-69
2022/05/31 10:50:54;;;;;;;5.47;2.47;;;19.30;94.00;;;;;;4164230;28;20108;-69
2022/05/31 10:53:33;;;;;;;2.90;2.10;;;19.30;94.60;;;;;;4167202;28;20042;-69
2022/05/31 10:55:55;;;;;;;2.90;1.88;;;19.40;95.90;;;;;;4162779;28;20033;-70
2022/05/31 10:58:29;;;;;;;6.30;2.95;;;19.50;97.70;;;;;;4165896;28;20041;-69
2022/05/31 11:00:34;;;;;;;5.38;2.92;;;19.40;93.80;;;;;;4164550;28;20034;-68
2022/05/31 11:02:38;;;;;;;4.20;2.60;;;19.40;93.80;;;;;;4166350;28;20045;-69
2022/05/31 11:04:48;;;;;;;5.00;2.95;;;19.40;93.80;;;;;;4165441;28;20040;-68